Latest Coastal Weather Observations for Low Isles

IDQ60701

Issued at 11:21 pm EST Wednesday 29 July 2015 (issued every 10 minutes, with the page automatically refreshed every 10 minutes)

About coastal observations | Map of coastal stations | Coastal observations for QLD | Marine services | Other Formats
Station Details ID: 031037 Name: LOW ISLES LIGHTHOUSE Lat: -16.38 Lon: 145.56 Height: 2.9 m
Data from the previous 72 hours. | See also: Recent months at Low Isles
Date/Time
EST
Temp

°C
Wind Pressure Rain
since 9am
mm
Weather Cloud Vis
km
Sea
Height
m
Swell
Dir
 
Speed
knots
Gust
knots
hPa Trend Height
m
Period
s
Dir
29/11:00pm 23.2 SE 27 32 1021.2 - 0.0 - - - - - - -
29/10:30pm 23.1 SE 29 34 1021.3 - 0.0 - - - - - - -
29/10:00pm 22.7 SSE 27 33 1021.1 - 0.0 - - - - - - -
29/09:30pm 22.4 SSE 25 30 1021.4 - 0.0 - - - - - - -
29/09:00pm 22.3 SSE 26 31 1021.3 - 0.0 - - - - - - -
29/08:30pm 22.4 SSE 29 34 1021.2 - 0.0 - - - - - - -
29/08:00pm 22.3 SE 29 33 1020.9 - 0.0 - - - - - - -
29/07:30pm 22.8 SSE 29 33 1020.4 - 0.0 - - - - - - -
29/07:00pm 22.6 SSE 27 32 1019.9 - 0.0 - - - - - - -
29/06:30pm 22.7 SSE 29 33 1019.7 - 0.0 - - - - - - -
29/06:00pm 22.9 SSE 29 34 1019.5 - 0.0 - - - - - - -
29/05:30pm 22.9 SSE 24 30 1019.3 - 0.0 - - - - - - -
29/05:00pm 22.8 SSE 25 30 1019.3 - 0.0 - - - - - - -
29/04:30pm 22.9 SSE 26 34 1019.0 - 0.0 - - - - - - -
29/04:00pm 22.6 SSE 28 36 1018.9 - 0.0 - - - - - - -
29/03:30pm 22.8 SE 27 31 1018.9 - 0.0 - - - - - - -
29/03:00pm 23.0 SSE 27 33 1018.8 - 0.0 Distant precip. Cloudy 10 - - - -
29/02:00pm 23.0 SSE 27 32 1019.3 - 0.0 - - - - - - -
29/01:30pm 23.2 SE 27 31 1019.6 - 0.0 - - - - - - -
29/01:00pm 23.6 SSE 27 31 1020.0 - 0.0 - - - - - - -
29/12:30pm 23.5 SE 27 31 1020.5 - 0.0 - - - - - - -
29/12:00pm 23.5 SSE 23 28 1021.0 - 0.0 - - - - - - -
29/11:30am 23.7 SSE 21 28 1021.4 - 0.0 - - - - - - -
29/11:00am 22.9 SSE 21 25 1021.9 - 0.0 - - - - - - -
29/10:30am 22.9 SSE 18 21 1022.3 - 0.0 - - - - - - -
29/10:00am 22.8 S 20 23 1022.5 - 0.0 - - - - - - -
29/09:30am 22.6 SSE 21 25 1022.4 - 0.0 - - - - - - -
29/09:00am 22.5 SSE 20 23 1022.4 - 0.0 Fine Mostly cloudy 10 - - - -
29/08:30am 22.5 SSE 22 26 1021.9 - 0.0 - - - - - - -
29/08:00am 22.4 SSE 21 24 1021.7 - 0.0 - - - - - - -
29/07:30am 22.6 SSE 23 28 1021.4 - 0.0 - - - - - - -
29/07:00am 22.6 SSE 27 32 1020.9 - 0.0 - - - - - - -
29/06:30am 22.7 SSE 26 30 1020.7 - 0.0 - - - - - - -
29/06:00am 22.8 SSE 27 31 1020.3 - 0.0 - - - - - - -
29/05:30am 22.7 SSE 26 31 1020.1 - 0.0 - - - - - - -
29/05:00am 22.8 SSE 25 30 1020.0 - 0.0 - - - - - - -
29/04:30am 22.1 SSE 27 32 1020.1 - 0.0 - - - - - - -
29/04:00am 22.3 SSE 31 36 1019.9 - 0.0 - - - - - - -
29/03:30am 21.8 SSE 28 37 1019.9 - 0.0 - - - - - - -
29/03:00am 22.9 SE 24 31 1019.8 - 0.0 - - - - - - -
29/02:30am 23.1 SE 25 29 1019.8 - 0.0 - - - - - - -
29/02:18am 22.6 SSE 19 31 1019.9 - 0.0 - - - - - - -
29/02:00am 22.7 SSE 19 25 1020.0 - 0.0 - - - - - - -
29/01:30am 22.3 SSE 17 19 1020.3 - 0.0 - - - - - - -
29/01:00am 22.6 SSE 19 24 1020.7 - 0.0 - - - - - - -
29/12:30am 22.6 SSE 16 18 1020.9 - 0.0 - - - - - - -
29/12:00am 22.8 SSE 17 17 1020.9 - 0.0 - - - - - - -
 
Date/Time
EST
Temp

°C
Wind Pressure Rain
since 9am
mm
Weather Cloud Vis
km
Sea
Height
m
Swell
Dir
 
Speed
knots
Gust
knots
hPa Trend Height
m
Period
s
Dir
28/11:30pm 22.8 SSE 18 21 1021.2 - 0.0 - - - - - - -
28/11:00pm 22.6 SSE 19 22 1021.5 - 0.0 - - - - - - -
28/10:30pm 22.7 SSE 23 27 1021.9 - 0.0 - - - - - - -
28/10:00pm 22.7 SSE 24 28 1021.9 - 0.0 - - - - - - -
28/09:30pm 23.0 SSE 25 30 1021.9 - 0.0 - - - - - - -
28/09:00pm 23.1 SSE 24 31 1021.6 - 0.0 - - - - - - -
28/08:30pm 22.9 SSE 26 31 1021.4 - 0.0 - - - - - - -
28/08:00pm 22.8 SSE 26 30 1021.1 - 0.0 - - - - - - -
28/07:30pm 22.9 SSE 26 31 1020.7 - 0.0 - - - - - - -
28/07:00pm 22.7 SSE 24 28 1020.3 - 0.0 - - - - - - -
28/06:30pm 23.1 SSE 26 29 1020.0 - 0.0 - - - - - - -
28/06:00pm 23.1 SSE 26 30 1019.5 - 0.0 - - - - - - -
28/05:30pm 23.3 SSE 23 27 1019.4 - 0.0 - - - - - - -
28/05:00pm 23.3 SSE 23 26 1019.2 - 0.0 - - - - - - -
28/04:30pm 23.6 SE 22 26 1019.0 - 0.0 - - - - - - -
28/04:00pm 24.1 SE 21 24 1018.7 - 0.0 - - - - - - -
28/03:30pm 24.2 SSE 21 25 1018.6 - 0.0 - - - - - - -
28/03:00pm 24.1 SSE 21 24 1018.8 - 0.0 Distant precip. Partly cloudy 12 - - - -
28/02:30pm 25.2 SE 20 23 1019.0 - 0.0 - - - - - - -
28/02:00pm 25.6 SE 21 25 1019.2 - 0.0 - - - - - - -
28/01:30pm 25.5 SE 20 24 1019.3 - 0.0 - - - - - - -
28/01:00pm 25.4 SE 20 23 1019.7 - 0.0 - - - - - - -
28/12:30pm 25.2 SSE 19 22 1020.1 - 0.0 - - - - - - -
28/12:00pm 25.3 SSE 19 22 1020.4 - 0.0 - - - - - - -
28/11:30am 24.9 SSE 19 21 1020.7 - 0.0 - - - - - - -
28/11:00am 24.6 SSE 18 21 1021.1 - 0.0 - - - - - - -
28/10:30am 24.3 SSE 17 21 1021.1 - 0.0 - - - - - - -
28/10:00am 23.6 SSE 16 18 1021.2 - 0.0 - - - - - - -
28/09:30am 23.3 SSE 15 17 1021.2 - 0.0 - - - - - - -
28/09:00am 23.1 SSE 13 15 1021.0 - 0.0 Distant precip. Mostly clear 14 - - - -
28/08:30am 23.0 S 14 16 1020.9 - 0.0 - - - - - - -
28/08:00am 23.2 SSE 17 19 1020.6 - 0.0 - - - - - - -
28/07:30am 23.2 SSE 14 16 1020.5 - 0.0 - - - - - - -
28/07:00am 22.8 S 11 14 1020.3 - 0.0 - - - - - - -
28/06:30am 22.6 S 13 14 1020.1 - 0.0 - - - - - - -
28/06:00am 22.7 SSE 17 19 1019.8 - 0.0 - - - - - - -
28/05:30am 22.9 SSE 20 23 1019.6 - 0.0 - - - - - - -
28/05:00am 22.9 SSE 15 17 1019.4 - 0.0 - - - - - - -
28/04:30am 23.0 SSE 15 17 1019.3 - 0.0 - - - - - - -
28/04:00am 23.0 SSE 17 20 1019.3 - 0.0 - - - - - - -
28/03:30am 22.9 SSE 16 18 1019.4 - 0.0 - - - - - - -
28/02:30am 22.8 SSE 15 17 1019.9 - 0.0 - - - - - - -
28/02:00am 22.7 S 15 17 1020.1 - 0.0 - - - - - - -
28/01:30am 22.6 S 14 16 1020.4 - 0.0 - - - - - - -
28/01:00am 22.8 SSE 14 15 1020.6 - 0.0 - - - - - - -
28/12:30am 23.0 SSE 15 17 1020.8 - 0.0 - - - - - - -
28/12:00am 23.0 SSE 15 17 1020.7 - 0.0 - - - - - - -
 
Date/Time
EST
Temp

°C
Wind Pressure Rain
since 9am
mm
Weather Cloud Vis
km
Sea
Height
m
Swell
Dir
 
Speed
knots
Gust
knots
hPa Trend Height
m
Period
s
Dir
27/11:30pm 23.3 SSE 16 18 1021.0 - 0.0 - - - - - - -
27/11:00pm 23.4 SSE 18 21 1021.1 - 0.0 - - - - - - -
27/10:30pm 23.2 SSE 18 21 1021.3 - 0.0 - - - - - - -
27/10:00pm 23.4 SSE 18 20 1021.3 - 0.0 - - - - - - -
27/09:30pm 23.5 SE 18 20 1021.1 - 0.0 - - - - - - -
27/09:00pm 23.5 SE 18 21 1020.9 - 0.0 - - - - - - -
27/08:30pm 23.6 SE 17 20 1020.8 - 0.0 - - - - - - -
27/08:00pm 23.7 SE 17 20 1020.5 - 0.0 - - - - - - -
27/07:30pm 23.8 SSE 15 18 1020.1 - 0.0 - - - - - - -
27/07:00pm 23.8 SSE 16 19 1019.8 - 0.0 - - - - - - -
27/06:30pm 23.8 SE 16 18 1019.6 - 0.0 - - - - - - -
27/06:00pm 23.9 SE 16 20 1019.3 - 0.0 - - - - - - -
27/05:30pm 24.2 SE 14 17 1019.2 - 0.0 - - - - - - -
27/05:00pm 24.4 ESE 13 16 1018.9 - 0.0 - - - - - - -
27/04:30pm 24.8 SE 14 18 1018.6 - 0.0 - - - - - - -
27/04:00pm 25.4 SE 14 18 1018.1 - 0.0 - - - - - - -
27/03:30pm 25.6 SE 13 17 1018.0 - 0.0 - - - - - - -
27/03:00pm 25.9 SE 13 18 1017.9 - 0.0 Haze Mostly clear 12 - - - -
27/02:30pm 26.3 SE 13 17 1018.3 - 0.0 - - - - - - -
27/02:00pm 26.6 SE 14 17 1018.7 - 0.0 - - - - - - -
27/01:30pm 26.3 SE 16 19 1019.2 - 0.0 - - - - - - -
27/01:00pm 26.3 SE 15 19 1019.6 - 0.0 - - - - - - -
27/12:30pm 25.8 SE 18 21 1020.0 - 0.0 - - - - - - -
27/12:00pm 25.6 SE 17 19 1020.2 - 0.0 - - - - - - -
27/11:30am 24.9 SSE 16 18 1020.7 - 0.0 - - - - - - -
27/11:00am 24.5 SSE 16 18 1021.1 - 0.0 - - - - - - -
27/10:30am 24.2 SSE 16 19 1021.3 - 0.0 - - - - - - -
27/10:00am 23.6 SSE 15 18 1021.4 - 0.0 - - - - - - -
27/09:30am 23.2 SSE 17 19 1021.6 - 0.0 - - - - - - -
27/09:00am 23.0 SSE 13 15 1021.5 - 2.4 Haze Partly cloudy 12 - - - -
27/08:30am 22.8 SSE 12 14 1021.3 - 2.4 - - - - - - -
27/08:00am 22.9 SSE 14 16 1021.0 - 2.4 - - - - - - -
27/07:30am 22.8 SSE 11 13 1020.7 - 2.4 - - - - - - -
27/07:00am 22.8 SSE 12 14 1020.4 - 2.4 - - - - - - -
27/06:30am 23.0 SE 15 18 1020.0 - 2.4 - - - - - - -
27/06:00am 23.0 SSE 14 16 1019.6 - 2.4 - - - - - - -
27/05:30am 22.9 SSE 15 16 1019.3 - 2.4 - - - - - - -
27/05:00am 23.1 SSE 15 17 1019.2 - 2.4 - - - - - - -
27/04:30am 23.1 SE 16 19 1019.1 - 2.4 - - - - - - -
27/04:00am 23.1 SE 17 19 1019.1 - 2.4 - - - - - - -
27/03:30am 23.1 SE 17 20 1019.1 - 2.4 - - - - - - -
27/03:00am 23.2 SE 19 22 1019.0 - 2.4 - - - - - - -
27/02:30am 23.3 SE 16 19 1019.3 - 2.4 - - - - - - -
27/02:00am 23.3 SSE 13 15 1019.6 - 2.4 - - - - - - -
27/01:30am 23.2 SSE 13 15 1019.9 - 2.4 - - - - - - -
27/01:00am 23.3 SSE 14 15 1020.1 - 2.4 - - - - - - -
27/12:30am 23.2 SSE 14 16 1020.3 - 2.4 - - - - - - -
27/12:00am 23.4 SSE 14 15 1020.4 - 2.4 - - - - - - -
 
Date/Time
EST
Temp

°C
Wind Pressure Rain
since 9am
mm
Weather Cloud Vis
km
Sea
Height
m
Swell
Dir
 
Speed
knots
Gust
knots
hPa Trend Height
m
Period
s
Dir
26/11:30pm 23.7 SSE 17 19 1020.8 - 2.4 - - - - - - -

Other Formats:

Comma delimited format used in spreadsheet applications
http://www.bom.gov.au/fwo/IDQ60701/IDQ60701.94285.axf

JavaScript Object Notation format (JSON) in row-major order
http://www.bom.gov.au/fwo/IDQ60701/IDQ60701.94285.json